createdAt,value
2022-08-18T00:00:20.403Z,10.68
2022-08-18T00:03:27.360Z,10.07
2022-08-18T00:06:28.585Z,9.55
2022-08-18T00:09:28.976Z,12.82
2022-08-18T00:12:24.702Z,11.90
2022-08-18T00:15:14.039Z,11.50
2022-08-18T00:18:02.372Z,10.88
2022-08-18T00:20:50.727Z,12.02
2022-08-18T00:23:39.747Z,11.70
2022-08-18T00:26:29.718Z,13.13
2022-08-18T00:29:20.646Z,11.75
2022-08-18T00:32:20.974Z,15.30
2022-08-18T00:35:09.981Z,10.25
2022-08-18T00:37:52.082Z,13.93
2022-08-18T00:40:45.965Z,13.00
2022-08-18T00:43:41.898Z,11.57
2022-08-18T00:46:38.049Z,11.43
2022-08-18T00:49:20.018Z,12.32
2022-08-18T00:52:09.973Z,11.30
2022-08-18T00:55:00.898Z,11.57
2022-08-18T00:57:51.134Z,15.07
2022-08-18T01:00:34.693Z,12.75
2022-08-18T01:03:29.893Z,12.32
2022-08-18T01:06:19.740Z,11.40
2022-08-18T01:09:15.588Z,11.75
2022-08-18T01:12:27.943Z,15.18
2022-08-18T01:15:07.039Z,11.68
2022-08-18T01:18:14.639Z,14.35
2022-08-18T01:21:47.802Z,16.35
2022-08-18T01:24:53.924Z,17.83
2022-08-18T01:27:42.758Z,17.45
2022-08-18T01:30:28.849Z,20.67
2022-08-18T01:33:19.984Z,14.95
2022-08-18T01:36:13.389Z,13.73
2022-08-18T01:39:05.712Z,16.02
2022-08-18T01:41:54.939Z,15.10
2022-08-18T01:44:43.710Z,16.67
2022-08-18T01:47:47.834Z,17.75
2022-08-18T01:50:37.985Z,16.73
2022-08-18T01:53:26.913Z,14.38
2022-08-18T01:56:15.889Z,15.38
2022-08-18T01:59:04.886Z,14.60
2022-08-18T02:01:56.048Z,18.48
2022-08-18T02:04:38.456Z,14.73
2022-08-18T02:07:36.254Z,17.52
2022-08-18T02:10:30.596Z,18.23
2022-08-18T02:13:20.887Z,19.33
2022-08-18T02:16:11.721Z,20.92
2022-08-18T02:19:00.626Z,14.48
2022-08-18T02:21:49.734Z,15.80
2022-08-18T02:24:32.317Z,21.98
2022-08-18T02:27:22.880Z,14.90
2022-08-18T02:30:16.117Z,12.05
2022-08-18T02:32:57.754Z,12.02
2022-08-18T02:35:41.114Z,13.65
2022-08-18T02:38:29.970Z,9.63
2022-08-18T02:41:15.703Z,10.55
2022-08-18T02:44:05.012Z,10.65
2022-08-18T02:46:47.366Z,13.25
2022-08-18T02:49:35.875Z,10.85
2022-08-18T02:52:18.448Z,13.20
2022-08-18T02:55:08.978Z,14.70
2022-08-18T02:57:51.269Z,8.77
2022-08-18T03:00:39.994Z,8.23
2022-08-18T03:03:22.222Z,13.60
2022-08-18T03:06:11.047Z,13.73
2022-08-18T03:09:06.632Z,10.38
2022-08-18T03:11:56.065Z,11.00
2022-08-18T03:14:38.333Z,15.90
2022-08-18T03:17:26.639Z,9.05
2022-08-18T03:20:09.169Z,10.27
2022-08-18T03:22:57.707Z,12.98
2022-08-18T03:25:47.964Z,7.85
2022-08-18T03:28:36.872Z,8.82
2022-08-18T03:31:22.001Z,13.80
2022-08-18T03:34:15.253Z,8.80
2022-08-18T03:36:58.726Z,12.20
2022-08-18T03:39:42.154Z,11.20
2022-08-18T03:42:31.950Z,7.13
2022-08-18T03:45:20.687Z,9.40
2022-08-18T03:48:03.758Z,8.18
2022-08-18T03:50:47.315Z,10.30
2022-08-18T03:53:36.779Z,6.22
2022-08-18T03:56:25.590Z,8.93
2022-08-18T03:59:21.737Z,7.50
2022-08-18T04:02:13.089Z,12.00
2022-08-18T04:04:55.663Z,6.55
2022-08-18T04:10:40.594Z,7.00
2022-08-18T04:13:28.963Z,5.68
2022-08-18T04:16:11.236Z,7.88
2022-08-18T04:19:00.042Z,11.77
2022-08-18T04:21:47.288Z,6.20
2022-08-18T04:24:37.765Z,7.80
2022-08-18T04:27:29.967Z,12.77
2022-08-18T04:30:18.961Z,6.05
2022-08-18T04:33:07.891Z,9.27
2022-08-18T04:35:49.847Z,6.82
2022-08-18T04:38:38.784Z,7.95
2022-08-18T04:41:24.206Z,9.45
2022-08-18T04:44:15.876Z,10.98
2022-08-18T04:47:04.006Z,6.85
2022-08-18T04:49:46.638Z,7.82
2022-08-18T04:52:53.228Z,5.40
2022-08-18T04:55:36.969Z,10.98
2022-08-18T04:58:19.955Z,10.63
2022-08-18T05:01:18.018Z,6.45
2022-08-18T05:04:06.890Z,7.53
2022-08-18T05:06:58.957Z,7.63
2022-08-18T05:09:49.892Z,9.85
2022-08-18T05:16:07.156Z,8.32
2022-08-18T05:18:49.699Z,9.80
2022-08-18T05:21:34.680Z,7.45
2022-08-18T05:24:32.205Z,7.95
2022-08-18T05:27:19.034Z,11.90
2022-08-18T05:30:07.958Z,10.52
2022-08-18T05:32:59.590Z,6.53
2022-08-18T05:36:02.701Z,7.35
2022-08-18T05:39:07.410Z,5.32
2022-08-18T05:42:06.862Z,7.40
2022-08-18T05:44:59.003Z,4.88
2022-08-18T05:47:47.668Z,8.20
2022-08-18T05:50:29.991Z,7.78
2022-08-18T05:53:25.945Z,7.82
2022-08-18T05:56:38.713Z,6.53
2022-08-18T05:59:35.026Z,6.28
2022-08-18T06:02:31.050Z,7.15
2022-08-18T06:05:34.926Z,6.55
2022-08-18T06:08:28.618Z,5.53
2022-08-18T06:11:22.338Z,5.82
2022-08-18T06:14:18.933Z,8.48
2022-08-18T06:17:22.954Z,7.97
2022-08-18T06:20:13.157Z,8.57
2022-08-18T06:23:37.955Z,8.68
2022-08-18T06:26:41.217Z,8.25
2022-08-18T06:29:47.952Z,8.48
2022-08-18T06:32:44.857Z,10.57
2022-08-18T06:35:56.031Z,8.95
2022-08-18T06:39:10.228Z,7.63
2022-08-18T06:41:58.862Z,8.03
2022-08-18T06:44:51.960Z,11.10
2022-08-18T06:47:49.151Z,7.50
2022-08-18T06:51:08.694Z,12.25
2022-08-18T06:54:10.026Z,9.52
2022-08-18T06:57:00.712Z,7.97
2022-08-18T06:59:49.855Z,9.75
2022-08-18T07:03:08.695Z,15.57
2022-08-18T07:06:14.398Z,11.77
2022-08-18T07:09:12.950Z,8.40
2022-08-18T07:12:18.120Z,10.98
2022-08-18T07:15:09.656Z,15.57
2022-08-18T07:18:04.565Z,7.95
2022-08-18T07:21:19.874Z,6.70
2022-08-18T07:24:36.833Z,8.38
2022-08-18T07:27:46.963Z,6.22
2022-08-18T07:30:29.179Z,9.98
2022-08-18T07:33:29.637Z,7.18
2022-08-18T07:36:13.999Z,6.93
2022-08-18T07:39:24.640Z,6.22
2022-08-18T07:43:01.349Z,6.35
2022-08-18T07:45:54.636Z,8.20
2022-08-18T07:48:48.071Z,7.78
2022-08-18T07:51:53.219Z,6.10
2022-08-18T07:54:49.268Z,9.57
2022-08-18T07:57:47.147Z,7.13
2022-08-18T08:00:58.650Z,7.68
2022-08-18T08:04:01.238Z,7.00
2022-08-18T08:07:25.353Z,6.70
2022-08-18T08:10:33.242Z,6.38
2022-08-18T08:13:54.198Z,12.02
2022-08-18T08:17:12.934Z,8.48
2022-08-18T08:20:14.442Z,10.70
2022-08-18T08:23:25.629Z,7.78
2022-08-18T08:26:35.728Z,11.00
2022-08-18T08:29:30.884Z,8.68
2022-08-18T08:32:28.882Z,7.90
2022-08-18T08:35:48.644Z,8.30
2022-08-18T08:38:48.877Z,10.35
2022-08-18T08:41:46.704Z,10.45
2022-08-18T08:44:58.405Z,10.82
2022-08-18T08:47:51.077Z,11.57
2022-08-18T08:50:46.870Z,11.38
2022-08-18T08:53:37.031Z,10.93
2022-08-18T08:56:29.628Z,11.52
2022-08-18T08:59:17.900Z,11.82
2022-08-18T09:02:46.155Z,11.57
2022-08-18T09:05:52.155Z,15.05
2022-08-18T09:09:01.956Z,11.23
2022-08-18T09:12:02.701Z,10.80
2022-08-18T09:14:47.419Z,10.68
2022-08-18T09:18:05.989Z,12.13
2022-08-18T09:20:57.163Z,14.23
2022-08-18T09:23:59.639Z,11.57
2022-08-18T09:26:51.870Z,11.60
2022-08-18T09:30:06.645Z,10.82
2022-08-18T09:36:15.144Z,10.60
2022-08-18T09:39:24.780Z,19.60
2022-08-18T09:42:19.500Z,11.05
2022-08-18T09:45:27.714Z,10.80
2022-08-18T09:50:38.229Z,11.15
2022-08-18T09:51:45.875Z,9.02
2022-08-18T09:54:34.862Z,10.00
2022-08-18T09:57:36.837Z,10.02
2022-08-18T10:00:39.364Z,9.85
2022-08-18T10:03:31.964Z,8.77
2022-08-18T10:06:20.846Z,9.77
2022-08-18T10:09:36.806Z,9.70
2022-08-18T10:12:53.456Z,12.45
2022-08-18T10:16:10.136Z,9.45
2022-08-18T10:19:33.692Z,10.80
2022-08-18T10:22:54.791Z,11.90
2022-08-18T10:25:50.770Z,9.45
2022-08-18T10:28:58.289Z,9.77
2022-08-18T10:32:04.698Z,8.23
2022-08-18T10:34:52.295Z,10.43
2022-08-18T10:37:46.936Z,8.32
2022-08-18T10:40:31.979Z,7.03
2022-08-18T10:43:55.789Z,7.72
2022-08-18T10:46:47.929Z,13.27
2022-08-18T10:49:46.870Z,7.82
2022-08-18T10:53:40.483Z,8.00
2022-08-18T10:56:48.699Z,7.15
2022-08-18T11:00:01.719Z,8.38
2022-08-18T11:03:29.933Z,12.10
2022-08-18T11:06:23.696Z,8.70
2022-08-18T11:09:05.852Z,8.32
2022-08-18T11:12:00.087Z,8.82
2022-08-18T11:15:21.111Z,9.45
2022-08-18T11:18:15.055Z,8.60
2022-08-18T11:21:51.891Z,7.80
2022-08-18T11:24:37.775Z,8.98
2022-08-18T11:27:40.491Z,7.95
2022-08-18T11:30:30.437Z,9.00
2022-08-18T11:33:25.681Z,6.95
2022-08-18T11:36:14.719Z,10.90
2022-08-18T11:38:58.691Z,6.57
2022-08-18T11:44:50.838Z,7.65
2022-08-18T11:47:39.951Z,5.97
2022-08-18T11:50:36.947Z,5.43
2022-08-18T11:53:30.142Z,7.43
2022-08-18T11:56:38.541Z,9.15
2022-08-18T11:59:52.414Z,10.32
2022-08-18T12:02:54.135Z,6.00
2022-08-18T12:05:45.759Z,7.75
2022-08-18T12:09:00.904Z,6.05
2022-08-18T12:12:03.927Z,6.15
2022-08-18T12:15:17.148Z,7.30
2022-08-18T12:18:05.000Z,6.78
2022-08-18T12:20:53.989Z,8.80
2022-08-18T12:23:52.305Z,9.43
2022-08-18T12:26:48.065Z,6.40
2022-08-18T12:29:46.975Z,6.63
2022-08-18T12:35:47.682Z,6.03
2022-08-18T12:38:37.998Z,6.63
2022-08-18T12:41:25.872Z,12.50
2022-08-18T12:44:14.431Z,11.07
2022-08-18T12:46:56.951Z,7.32
2022-08-18T12:49:52.999Z,9.77
2022-08-18T12:52:44.049Z,6.70
2022-08-18T12:55:26.757Z,7.13
2022-08-18T12:58:09.019Z,9.30
2022-08-18T13:00:59.836Z,9.65
2022-08-18T13:03:42.627Z,7.40
2022-08-18T13:06:31.966Z,7.95
2022-08-18T13:09:41.561Z,9.20
2022-08-18T13:12:25.635Z,10.55
2022-08-18T13:15:16.228Z,11.30
2022-08-18T13:18:02.896Z,11.18
2022-08-18T13:20:52.286Z,7.10
2022-08-18T13:23:35.861Z,6.88
2022-08-18T13:26:41.568Z,16.95
2022-08-18T13:29:25.949Z,9.80
2022-08-18T13:32:16.996Z,10.20
2022-08-18T13:35:08.968Z,12.43
2022-08-18T13:37:56.387Z,10.57
2022-08-18T13:40:45.524Z,16.35
2022-08-18T13:43:47.942Z,12.20
2022-08-18T13:46:44.257Z,15.32
2022-08-18T13:49:30.625Z,9.88
2022-08-18T13:52:33.112Z,9.10
2022-08-18T13:55:28.680Z,15.43
2022-08-18T13:58:17.554Z,12.20
2022-08-18T14:04:28.022Z,10.73
2022-08-18T14:07:27.473Z,11.10
2022-08-18T14:10:13.232Z,12.85
2022-08-18T14:13:01.717Z,7.85
2022-08-18T14:16:08.867Z,15.35
2022-08-18T14:19:12.294Z,9.20
2022-08-18T14:22:20.695Z,13.77
2022-08-18T14:25:33.931Z,17.20
2022-08-18T14:28:25.711Z,11.40
2022-08-18T14:31:10.290Z,11.88
2022-08-18T14:34:03.890Z,12.00
2022-08-18T14:36:46.837Z,16.23
2022-08-18T14:42:41.447Z,11.13
2022-08-18T14:45:35.205Z,11.90
2022-08-18T14:48:18.819Z,11.45
2022-08-18T14:51:09.555Z,15.50
2022-08-18T14:53:59.656Z,10.90
2022-08-18T14:56:41.630Z,10.73
2022-08-18T14:59:23.977Z,14.27
2022-08-18T15:02:11.205Z,12.75
2022-08-18T15:05:01.671Z,11.80
2022-08-18T15:08:01.224Z,12.43
2022-08-18T15:10:50.875Z,12.90
2022-08-18T15:13:35.970Z,12.38
2022-08-18T15:16:31.551Z,15.75
2022-08-18T15:19:59.689Z,14.30
2022-08-18T15:22:34.887Z,12.85
2022-08-18T15:25:50.943Z,14.18
2022-08-18T15:28:41.002Z,12.70
2022-08-18T15:31:50.378Z,11.88
2022-08-18T15:34:47.141Z,17.10
2022-08-18T15:37:34.563Z,17.75
2022-08-18T15:40:31.277Z,12.13
2022-08-18T15:43:29.177Z,13.48
2022-08-18T15:46:19.683Z,12.68
2022-08-18T15:49:06.023Z,17.73
2022-08-18T15:51:54.952Z,16.58
2022-08-18T15:55:04.701Z,12.88
2022-08-18T15:58:12.378Z,16.13
2022-08-18T16:06:37.569Z,16.35
2022-08-18T16:09:27.137Z,16.27
2022-08-18T16:12:09.964Z,15.88
2022-08-18T16:15:00.755Z,13.20
2022-08-18T16:17:44.234Z,16.45
2022-08-18T16:20:37.680Z,17.27
2022-08-18T16:23:21.275Z,14.82
2022-08-18T16:26:10.679Z,15.65
2022-08-18T16:28:59.187Z,19.95
2022-08-18T16:31:49.752Z,18.73
2022-08-18T16:34:33.328Z,20.65
2022-08-18T16:37:21.692Z,16.30
2022-08-18T16:40:04.284Z,15.95
2022-08-18T16:42:53.905Z,20.75
2022-08-18T16:45:36.953Z,18.80
2022-08-18T16:51:19.957Z,19.08
2022-08-18T16:54:09.042Z,18.20
2022-08-18T16:56:51.703Z,19.20
2022-08-18T16:59:52.081Z,19.67
2022-08-18T17:03:01.338Z,17.67
2022-08-18T17:05:56.801Z,15.77
2022-08-18T17:08:53.939Z,14.85
2022-08-18T17:11:38.255Z,14.27
2022-08-18T17:14:42.552Z,13.77
2022-08-18T17:17:31.909Z,16.20
2022-08-18T17:20:17.722Z,15.30
2022-08-18T17:23:07.667Z,12.13
2022-08-18T17:25:49.990Z,15.75
2022-08-18T17:28:58.840Z,16.35
2022-08-18T17:31:43.132Z,14.40
2022-08-18T17:34:49.706Z,15.35
2022-08-18T17:37:33.204Z,14.10
2022-08-18T17:40:38.832Z,14.98
2022-08-18T17:43:37.741Z,16.35
2022-08-18T17:46:48.026Z,16.48
2022-08-18T17:50:27.049Z,16.92
2022-08-18T17:53:14.687Z,23.25
2022-08-18T17:56:10.915Z,17.55
2022-08-18T17:59:01.435Z,21.50
2022-08-18T18:01:50.708Z,23.15
2022-08-18T18:04:32.744Z,21.30
2022-08-18T18:07:52.125Z,24.90
2022-08-18T18:11:10.415Z,20.95
2022-08-18T18:13:52.825Z,19.40
2022-08-18T18:16:42.092Z,17.10
2022-08-18T18:19:37.586Z,22.33
2022-08-18T18:22:35.179Z,18.00
2022-08-18T18:25:19.673Z,21.10
2022-08-18T18:28:02.544Z,23.98
2022-08-18T18:30:51.709Z,19.75
2022-08-18T18:33:40.918Z,22.77
2022-08-18T18:36:43.029Z,19.88
2022-08-18T18:39:38.961Z,21.23
2022-08-18T18:42:26.044Z,23.15
2022-08-18T18:45:27.946Z,20.77
2022-08-18T18:48:48.058Z,25.42
2022-08-18T18:51:43.714Z,26.63
2022-08-18T18:55:02.662Z,27.90
2022-08-18T18:58:07.927Z,28.02
2022-08-18T19:01:00.484Z,21.35
2022-08-18T19:03:59.601Z,23.05
2022-08-18T19:07:08.580Z,20.85
2022-08-18T19:10:17.223Z,19.75
2022-08-18T19:13:33.292Z,22.77
2022-08-18T19:16:24.653Z,22.20
2022-08-18T19:19:37.371Z,20.80
2022-08-18T19:25:31.974Z,20.40
2022-08-18T19:28:31.010Z,26.95
2022-08-18T19:31:41.341Z,21.17
2022-08-18T19:34:35.692Z,26.20
2022-08-18T19:37:33.026Z,23.95
2022-08-18T19:40:28.495Z,19.95
2022-08-18T19:43:39.002Z,26.08
2022-08-18T19:46:38.942Z,23.25
2022-08-18T19:49:43.928Z,21.77
2022-08-18T19:52:56.780Z,21.42
2022-08-18T19:55:57.932Z,24.25
2022-08-18T19:59:15.632Z,20.35
2022-08-18T20:02:24.996Z,21.73
2022-08-18T20:05:35.063Z,28.70
2022-08-18T20:08:48.604Z,32.22
2022-08-18T20:11:49.625Z,30.52
2022-08-18T20:14:39.941Z,26.83
2022-08-18T20:17:30.233Z,29.70
2022-08-18T20:20:20.672Z,23.50
2022-08-18T20:23:41.026Z,20.02
2022-08-18T20:26:54.207Z,20.13
2022-08-18T20:29:43.664Z,25.77
2022-08-18T20:32:37.465Z,21.63
2022-08-18T20:35:32.682Z,19.83
2022-08-18T20:38:37.631Z,19.17
2022-08-18T20:42:01.829Z,19.23
2022-08-18T20:45:04.818Z,20.52
2022-08-18T20:48:31.836Z,19.83
2022-08-18T20:51:27.688Z,22.33
2022-08-18T20:55:03.040Z,21.55
2022-08-18T20:58:01.679Z,23.63
2022-08-18T21:00:52.084Z,34.78
2022-08-18T21:03:49.952Z,23.75
2022-08-18T21:06:48.698Z,19.90
2022-08-18T21:09:37.944Z,21.23
2022-08-18T21:12:20.667Z,28.38
2022-08-18T21:15:13.593Z,30.42
2022-08-18T21:18:22.911Z,23.33
2022-08-18T21:21:33.993Z,29.15
2022-08-18T21:24:43.795Z,23.10
2022-08-18T21:27:39.533Z,29.13
2022-08-18T21:30:36.929Z,28.73
2022-08-18T21:33:20.994Z,27.73
2022-08-18T21:36:10.580Z,26.67
2022-08-18T21:39:06.002Z,24.58
2022-08-18T21:41:55.668Z,25.40
2022-08-18T21:44:46.822Z,23.38
2022-08-18T21:47:44.921Z,29.88
2022-08-18T21:50:39.529Z,23.30
2022-08-18T21:53:28.128Z,27.20
2022-08-18T21:56:31.949Z,32.00
2022-08-18T21:59:17.588Z,24.55
2022-08-18T22:02:06.591Z,28.60
2022-08-18T22:05:01.832Z,32.70
2022-08-18T22:08:02.527Z,31.30
2022-08-18T22:11:14.914Z,29.27
2022-08-18T22:14:54.621Z,29.55
2022-08-18T22:17:48.349Z,24.42
2022-08-18T22:20:50.907Z,23.15
2022-08-18T22:23:54.678Z,31.02
2022-08-18T22:33:11.319Z,18.08
2022-08-18T22:36:10.671Z,17.92
2022-08-18T22:38:58.483Z,19.00
2022-08-18T22:41:54.735Z,15.00
2022-08-18T22:44:46.193Z,14.55
2022-08-18T22:47:43.120Z,15.32
2022-08-18T22:50:30.874Z,22.23
2022-08-18T22:53:34.940Z,15.40
2022-08-18T22:56:34.782Z,12.63
2022-08-18T22:59:22.890Z,18.77
2022-08-18T23:02:13.058Z,13.05
2022-08-18T23:05:08.345Z,12.57
2022-08-18T23:07:57.826Z,16.33
2022-08-18T23:10:52.990Z,11.23
2022-08-18T23:13:41.784Z,11.05
2022-08-18T23:16:31.501Z,16.50
2022-08-18T23:19:25.828Z,11.65
2022-08-18T23:22:16.660Z,13.38
2022-08-18T23:25:09.157Z,15.35
2022-08-18T23:27:50.929Z,12.45
2022-08-18T23:30:32.997Z,11.27
2022-08-18T23:33:22.940Z,20.00
2022-08-18T23:36:06.546Z,18.85
2022-08-18T23:38:54.723Z,13.57
2022-08-18T23:41:37.648Z,12.25
2022-08-18T23:44:27.512Z,14.63
2022-08-18T23:47:19.101Z,18.92
2022-08-18T23:50:01.860Z,13.25
2022-08-18T23:52:43.864Z,16.20
2022-08-18T23:55:35.894Z,15.88
2022-08-18T23:58:18.039Z,11.48
